createdAt,value
2023-04-13T00:00:15.820Z,7.10
2023-04-13T00:01:48.840Z,7.10
2023-04-13T00:03:24.155Z,7.10
2023-04-13T00:04:58.018Z,7.10
2023-04-13T00:06:30.784Z,7.10
2023-04-13T00:08:03.608Z,7.10
2023-04-13T00:09:37.418Z,7.10
2023-04-13T00:11:10.211Z,7.10
2023-04-13T00:12:42.998Z,7.10
2023-04-13T00:14:15.805Z,7.10
2023-04-13T00:15:48.519Z,7.10
2023-04-13T00:17:21.232Z,7.10
2023-04-13T00:18:55.276Z,7.10
2023-04-13T00:20:27.018Z,7.10
2023-04-13T00:22:00.576Z,7.10
2023-04-13T00:23:34.170Z,7.10
2023-04-13T00:25:06.435Z,7.00
2023-04-13T00:26:39.762Z,7.10
2023-04-13T00:28:11.778Z,7.00
2023-04-13T00:29:44.518Z,7.00
2023-04-13T00:31:17.313Z,7.00
2023-04-13T00:32:49.377Z,7.00
2023-04-13T00:34:23.596Z,7.00
2023-04-13T00:35:56.314Z,7.00
2023-04-13T00:37:30.167Z,7.10
2023-04-13T00:39:02.845Z,7.00
2023-04-13T00:40:37.615Z,7.00
2023-04-13T00:42:09.724Z,7.00
2023-04-13T00:43:44.865Z,7.00
2023-04-13T00:45:18.111Z,7.10
2023-04-13T00:46:54.282Z,7.00
2023-04-13T00:48:27.178Z,7.00
2023-04-13T00:50:03.612Z,7.00
2023-04-13T00:51:36.356Z,7.10
2023-04-13T00:53:12.968Z,7.10
2023-04-13T00:54:45.762Z,7.10
2023-04-13T00:56:19.126Z,7.10
2023-04-13T00:57:52.376Z,7.10
2023-04-13T00:59:27.265Z,7.00
2023-04-13T01:01:00.013Z,7.10
2023-04-13T01:02:32.535Z,7.00
2023-04-13T01:04:05.400Z,7.10
2023-04-13T01:05:50.501Z,7.00
2023-04-13T01:07:32.086Z,7.00
2023-04-13T01:09:09.845Z,7.00
2023-04-13T01:10:55.124Z,7.00
2023-04-13T01:12:35.736Z,7.00
2023-04-13T01:14:13.138Z,6.90
2023-04-13T01:15:52.147Z,7.00
2023-04-13T01:17:28.598Z,6.90
2023-04-13T01:19:02.787Z,6.90
2023-04-13T01:20:38.409Z,7.00
2023-04-13T01:22:14.431Z,6.90
2023-04-13T01:24:04.604Z,6.90
2023-04-13T01:25:40.307Z,6.90
2023-04-13T01:27:20.301Z,6.90
2023-04-13T01:28:54.887Z,7.00
2023-04-13T01:30:29.118Z,6.90
2023-04-13T01:32:02.547Z,6.90
2023-04-13T01:33:35.403Z,6.90
2023-04-13T01:35:10.609Z,6.90
2023-04-13T01:36:43.646Z,6.90
2023-04-13T01:38:16.362Z,6.90
2023-04-13T01:39:49.517Z,6.90
2023-04-13T01:41:22.288Z,6.90
2023-04-13T01:42:54.970Z,6.90
2023-04-13T01:44:32.931Z,6.90
2023-04-13T01:46:11.182Z,6.90
2023-04-13T01:47:50.938Z,6.90
2023-04-13T01:49:24.402Z,6.90
2023-04-13T01:50:58.409Z,6.90
2023-04-13T01:52:34.042Z,7.00
2023-04-13T01:54:12.632Z,6.90
2023-04-13T01:55:46.319Z,6.90
2023-04-13T01:57:18.583Z,6.90
2023-04-13T01:58:56.230Z,6.90
2023-04-13T02:00:36.201Z,6.90
2023-04-13T02:02:09.035Z,6.90
2023-04-13T02:03:43.284Z,6.90
2023-04-13T02:05:15.308Z,6.90
2023-04-13T02:06:48.223Z,6.90
2023-04-13T02:08:20.945Z,6.90
2023-04-13T02:09:54.110Z,6.90
2023-04-13T02:11:28.361Z,6.90
2023-04-13T02:13:00.815Z,6.90
2023-04-13T02:14:33.543Z,6.90
2023-04-13T02:16:09.985Z,6.90
2023-04-13T02:17:44.844Z,6.90
2023-04-13T02:19:17.654Z,7.00
2023-04-13T02:20:59.252Z,6.90
2023-04-13T02:22:32.172Z,7.00
2023-04-13T02:24:05.782Z,7.00
2023-04-13T02:25:38.910Z,7.00
2023-04-13T02:27:10.649Z,7.10
2023-04-13T02:28:43.906Z,7.10
2023-04-13T02:30:17.245Z,7.10
2023-04-13T02:31:51.323Z,7.10
2023-04-13T02:33:23.162Z,7.20
2023-04-13T02:34:55.857Z,7.10
2023-04-13T02:36:28.584Z,7.20
2023-04-13T02:38:01.277Z,7.20
2023-04-13T02:39:33.955Z,7.20
2023-04-13T02:41:07.842Z,7.20
2023-04-13T02:42:39.652Z,7.20
2023-04-13T02:44:12.515Z,7.20
2023-04-13T02:45:45.230Z,7.20
2023-04-13T02:47:19.327Z,7.20
2023-04-13T02:48:51.184Z,7.30
2023-04-13T02:50:23.929Z,7.30
2023-04-13T02:51:56.744Z,7.20
2023-04-13T02:53:28.478Z,7.20
2023-04-13T02:55:01.218Z,7.30
2023-04-13T02:56:35.750Z,7.30
2023-04-13T02:58:10.031Z,7.20
2023-04-13T02:59:42.015Z,7.30
2023-04-13T03:01:14.773Z,7.30
2023-04-13T03:02:49.246Z,7.20
2023-04-13T03:04:22.244Z,7.30
2023-04-13T03:05:54.994Z,7.30
2023-04-13T03:07:27.785Z,7.30
2023-04-13T03:08:59.522Z,7.30
2023-04-13T03:10:32.238Z,7.30
2023-04-13T03:12:04.467Z,7.30
2023-04-13T03:13:37.237Z,7.30
2023-04-13T03:15:11.896Z,7.30
2023-04-13T03:16:44.660Z,7.30
2023-04-13T03:18:18.889Z,7.30
2023-04-13T03:19:51.992Z,7.30
2023-04-13T03:21:24.331Z,7.40
2023-04-13T03:22:58.485Z,7.40
2023-04-13T03:24:31.174Z,7.40
2023-04-13T03:26:02.975Z,7.40
2023-04-13T03:27:35.932Z,7.40
2023-04-13T03:29:08.978Z,7.40
2023-04-13T03:30:41.707Z,7.40
2023-04-13T03:32:14.501Z,7.40
2023-04-13T03:33:48.583Z,7.40
2023-04-13T03:35:21.269Z,7.50
2023-04-13T03:36:54.003Z,7.50
2023-04-13T03:38:26.704Z,7.50
2023-04-13T03:39:58.845Z,7.50
2023-04-13T03:41:31.585Z,7.50
2023-04-13T03:43:04.579Z,7.50
2023-04-13T03:44:37.423Z,7.50
2023-04-13T03:46:10.186Z,7.50
2023-04-13T03:47:42.977Z,7.50
2023-04-13T03:49:17.141Z,7.50
2023-04-13T03:50:49.834Z,7.50
2023-04-13T03:52:22.547Z,7.50
2023-04-13T03:53:55.080Z,7.50
2023-04-13T03:55:28.055Z,7.60
2023-04-13T03:57:02.217Z,7.60
2023-04-13T03:58:35.635Z,7.60
2023-04-13T04:00:13.797Z,7.60
2023-04-13T04:01:46.600Z,7.60
2023-04-13T04:03:19.477Z,7.60
2023-04-13T04:04:53.645Z,7.60
2023-04-13T04:06:27.056Z,7.60
2023-04-13T04:07:59.857Z,7.60
2023-04-13T04:09:32.804Z,7.60
2023-04-13T04:11:06.254Z,7.60
2023-04-13T04:12:38.995Z,7.60
2023-04-13T04:14:11.737Z,7.60
2023-04-13T04:15:44.475Z,7.60
2023-04-13T04:17:17.174Z,7.60
2023-04-13T04:18:49.867Z,7.60
2023-04-13T04:20:24.029Z,7.60
2023-04-13T04:21:57.784Z,7.60
2023-04-13T04:23:30.925Z,7.60
2023-04-13T04:25:04.470Z,7.60
2023-04-13T04:26:38.054Z,7.70
2023-04-13T04:28:10.772Z,7.70
2023-04-13T04:29:49.026Z,7.70
2023-04-13T04:31:21.825Z,7.70
2023-04-13T04:32:54.640Z,7.70
2023-04-13T04:34:26.415Z,7.70
2023-04-13T04:36:01.648Z,7.70
2023-04-13T04:37:37.322Z,7.60
2023-04-13T04:39:10.529Z,7.70
2023-04-13T04:40:45.248Z,7.70
2023-04-13T04:42:18.664Z,7.70
2023-04-13T04:43:51.489Z,7.70
2023-04-13T04:45:27.526Z,7.70
2023-04-13T04:47:02.680Z,7.70
2023-04-13T04:48:37.526Z,7.70
2023-04-13T04:50:11.192Z,7.70
2023-04-13T04:51:45.495Z,7.70
2023-04-13T04:53:18.188Z,7.70
2023-04-13T04:54:51.771Z,7.70
2023-04-13T04:56:24.476Z,7.70
2023-04-13T04:57:57.280Z,7.70
2023-04-13T04:59:29.990Z,7.70
2023-04-13T05:01:02.734Z,7.80
2023-04-13T05:02:34.735Z,7.80
2023-04-13T05:04:08.031Z,7.80
2023-04-13T05:05:41.049Z,7.80
2023-04-13T05:07:17.675Z,7.70
2023-04-13T05:08:50.391Z,7.70
2023-04-13T05:10:24.534Z,7.70
2023-04-13T05:11:57.964Z,7.70
2023-04-13T05:13:30.672Z,7.70
2023-04-13T05:15:04.091Z,7.70
2023-04-13T05:16:37.260Z,7.70
2023-04-13T05:18:13.038Z,7.70
2023-04-13T05:19:45.969Z,7.70
2023-04-13T05:21:19.594Z,7.70
2023-04-13T05:22:53.782Z,7.70
2023-04-13T05:24:27.086Z,7.70
2023-04-13T05:26:00.030Z,7.70
2023-04-13T05:27:32.821Z,7.70
2023-04-13T05:29:08.027Z,7.70
2023-04-13T05:30:40.865Z,7.70
2023-04-13T05:32:13.752Z,7.70
2023-04-13T05:33:46.486Z,7.70
2023-04-13T05:35:19.942Z,7.70
2023-04-13T05:36:53.563Z,7.70
2023-04-13T05:38:27.591Z,7.70
2023-04-13T05:40:00.288Z,7.70
2023-04-13T05:41:33.782Z,7.70
2023-04-13T05:43:06.524Z,7.70
2023-04-13T05:44:39.254Z,7.70
2023-04-13T05:46:12.275Z,7.80
2023-04-13T05:47:45.572Z,7.70
2023-04-13T05:49:18.331Z,7.70
2023-04-13T05:50:51.379Z,7.80
2023-04-13T05:52:24.104Z,7.70
2023-04-13T05:53:58.249Z,7.70
2023-04-13T05:55:31.486Z,7.70
2023-04-13T05:57:04.448Z,7.80
2023-04-13T05:58:38.117Z,7.80
2023-04-13T06:00:12.134Z,7.80
2023-04-13T06:01:45.048Z,7.80
2023-04-13T06:03:20.563Z,7.90
2023-04-13T06:04:55.078Z,7.90
2023-04-13T06:06:30.123Z,7.90
2023-04-13T06:08:03.221Z,8.00
2023-04-13T06:09:37.618Z,8.00
2023-04-13T06:11:10.470Z,8.10
2023-04-13T06:12:43.660Z,8.10
2023-04-13T06:14:17.638Z,8.10
2023-04-13T06:15:50.402Z,8.10
2023-04-13T06:17:23.129Z,8.10
2023-04-13T06:18:55.976Z,8.10
2023-04-13T06:20:28.692Z,8.10
2023-04-13T06:22:01.594Z,8.10
2023-04-13T06:23:34.311Z,8.10
2023-04-13T06:25:10.838Z,8.10
2023-04-13T06:26:43.535Z,8.10
2023-04-13T06:28:16.495Z,8.10
2023-04-13T06:29:49.718Z,8.20
2023-04-13T06:31:23.316Z,8.20
2023-04-13T06:32:56.174Z,8.30
2023-04-13T06:34:28.868Z,8.30
2023-04-13T06:36:01.699Z,8.30
2023-04-13T06:37:36.250Z,8.30
2023-04-13T06:39:09.368Z,8.40
2023-04-13T06:40:43.438Z,8.50
2023-04-13T06:42:16.693Z,8.50
2023-04-13T06:43:49.402Z,8.50
2023-04-13T06:45:22.776Z,8.50
2023-04-13T06:46:56.233Z,8.60
2023-04-13T06:48:29.113Z,8.60
2023-04-13T06:50:04.230Z,8.60
2023-04-13T06:51:37.140Z,8.60
2023-04-13T06:53:09.845Z,8.60
2023-04-13T06:54:42.566Z,8.60
2023-04-13T06:56:16.756Z,8.60
2023-04-13T06:57:49.448Z,8.70
2023-04-13T06:59:22.197Z,8.60
2023-04-13T07:00:54.969Z,8.70
2023-04-13T07:02:28.081Z,8.70
2023-04-13T07:04:02.403Z,8.70
2023-04-13T07:05:35.469Z,8.80
2023-04-13T07:07:08.193Z,8.90
2023-04-13T07:08:40.908Z,9.00
2023-04-13T07:10:13.725Z,9.00
2023-04-13T07:11:47.864Z,9.10
2023-04-13T07:13:20.698Z,9.10
2023-04-13T07:14:53.400Z,9.10
2023-04-13T07:16:26.296Z,9.20
2023-04-13T07:17:59.192Z,9.20
2023-04-13T07:19:33.085Z,9.30
2023-04-13T07:21:07.111Z,9.30
2023-04-13T07:22:39.867Z,9.30
2023-04-13T07:24:12.552Z,9.40
2023-04-13T07:25:45.626Z,9.40
2023-04-13T07:27:19.668Z,9.40
2023-04-13T07:28:52.460Z,9.50
2023-04-13T07:30:25.486Z,9.50
2023-04-13T07:32:01.609Z,9.60
2023-04-13T07:33:34.419Z,9.70
2023-04-13T07:35:07.598Z,9.70
2023-04-13T07:36:41.872Z,9.70
2023-04-13T07:38:15.785Z,9.80
2023-04-13T07:39:48.544Z,9.90
2023-04-13T07:41:22.520Z,9.90
2023-04-13T07:42:56.724Z,10.00
2023-04-13T07:44:29.548Z,10.00
2023-04-13T07:46:08.826Z,10.10
2023-04-13T07:47:41.614Z,10.10
2023-04-13T07:49:14.410Z,10.10
2023-04-13T07:50:47.144Z,10.10
2023-04-13T07:52:20.489Z,10.20
2023-04-13T07:53:54.568Z,10.20
2023-04-13T07:55:27.237Z,10.30
2023-04-13T07:56:59.923Z,10.30
2023-04-13T07:58:34.048Z,10.30
2023-04-13T08:00:08.275Z,10.20
2023-04-13T08:01:41.133Z,10.20
2023-04-13T08:03:13.969Z,10.20
2023-04-13T08:04:46.862Z,10.10
2023-04-13T08:06:21.026Z,10.10
2023-04-13T08:07:53.889Z,10.00
2023-04-13T08:09:26.970Z,10.00
2023-04-13T08:10:59.659Z,9.90
2023-04-13T08:12:32.358Z,9.90
2023-04-13T08:14:07.069Z,10.00
2023-04-13T08:15:39.757Z,9.90
2023-04-13T08:17:12.487Z,9.90
2023-04-13T08:18:45.193Z,9.90
2023-04-13T08:20:18.476Z,9.90
2023-04-13T08:21:51.220Z,9.90
2023-04-13T08:23:24.391Z,9.90
2023-04-13T08:24:57.301Z,9.90
2023-04-13T08:26:29.979Z,9.80
2023-04-13T08:28:02.672Z,9.80
2023-04-13T08:29:36.853Z,9.90
2023-04-13T08:31:09.804Z,9.80
2023-04-13T08:32:42.565Z,9.90
2023-04-13T08:34:15.272Z,9.90
2023-04-13T08:35:47.970Z,9.90
2023-04-13T08:37:20.883Z,9.90
2023-04-13T08:38:53.978Z,9.90
2023-04-13T08:40:27.223Z,9.90
2023-04-13T08:42:00.001Z,9.80
2023-04-13T08:43:35.494Z,9.90
2023-04-13T08:45:11.090Z,9.90
2023-04-13T08:46:46.410Z,9.90
2023-04-13T08:48:19.475Z,9.90
2023-04-13T08:49:52.682Z,9.90
2023-04-13T08:51:28.634Z,9.90
2023-04-13T08:53:01.545Z,9.90
2023-04-13T08:54:35.144Z,10.00
2023-04-13T08:56:10.166Z,9.90
2023-04-13T08:57:43.556Z,9.90
2023-04-13T08:59:17.301Z,9.90
2023-04-13T09:00:51.690Z,9.90
2023-04-13T09:02:28.248Z,10.00
2023-04-13T09:04:10.531Z,10.00
2023-04-13T09:05:43.940Z,10.00
2023-04-13T09:07:26.523Z,10.00
2023-04-13T09:09:01.331Z,10.00
2023-04-13T09:10:34.241Z,10.00
2023-04-13T09:12:07.106Z,10.00
2023-04-13T09:13:39.782Z,10.00
2023-04-13T09:15:15.653Z,10.10
2023-04-13T09:16:49.815Z,10.00
2023-04-13T09:18:22.765Z,10.00
2023-04-13T09:19:57.281Z,10.10
2023-04-13T09:21:38.495Z,10.10
2023-04-13T09:23:17.802Z,10.10
2023-04-13T09:24:50.573Z,10.10
2023-04-13T09:26:23.789Z,10.20
2023-04-13T09:27:57.219Z,10.30
2023-04-13T09:29:29.932Z,10.30
2023-04-13T09:31:05.365Z,10.40
2023-04-13T09:32:39.552Z,10.50
2023-04-13T09:34:12.568Z,10.50
2023-04-13T09:35:45.445Z,10.60
2023-04-13T09:37:18.454Z,10.70
2023-04-13T09:38:55.967Z,10.80
2023-04-13T09:40:28.927Z,10.90
2023-04-13T09:42:11.917Z,11.00
2023-04-13T09:43:44.619Z,11.10
2023-04-13T09:45:17.496Z,11.30
2023-04-13T09:46:58.391Z,11.50
2023-04-13T09:48:32.547Z,11.70
2023-04-13T09:50:06.037Z,11.90
2023-04-13T09:51:39.623Z,12.00
2023-04-13T09:53:12.327Z,12.10
2023-04-13T09:54:46.608Z,12.10
2023-04-13T09:56:21.229Z,12.20
2023-04-13T09:57:54.121Z,12.20
2023-04-13T09:59:27.610Z,12.20
2023-04-13T10:01:01.413Z,12.30
2023-04-13T10:02:35.722Z,12.30
2023-04-13T10:04:10.358Z,12.30
2023-04-13T10:05:58.926Z,12.40
2023-04-13T10:07:36.998Z,12.40
2023-04-13T10:09:10.729Z,12.40
2023-04-13T10:10:43.727Z,12.40
2023-04-13T10:12:18.375Z,12.40
2023-04-13T10:13:54.065Z,12.50
2023-04-13T10:15:39.928Z,12.50
2023-04-13T10:17:38.909Z,12.60
2023-04-13T10:19:16.286Z,12.80
2023-04-13T10:20:50.294Z,12.90
2023-04-13T10:22:24.189Z,13.00
2023-04-13T10:23:57.414Z,13.10
2023-04-13T10:25:33.850Z,13.20
2023-04-13T10:27:12.630Z,13.30
2023-04-13T10:28:46.256Z,13.40
2023-04-13T10:30:19.720Z,13.50
2023-04-13T10:31:52.556Z,13.40
2023-04-13T10:33:26.573Z,13.40
2023-04-13T10:35:10.167Z,13.40
2023-04-13T10:36:46.911Z,13.40
2023-04-13T10:38:19.715Z,13.40
2023-04-13T10:40:02.561Z,13.40
2023-04-13T10:41:35.490Z,13.40
2023-04-13T10:43:08.358Z,13.40
2023-04-13T10:44:45.710Z,13.50
2023-04-13T10:46:18.760Z,13.50
2023-04-13T10:47:52.889Z,13.50
2023-04-13T10:49:32.896Z,13.40
2023-04-13T10:51:07.096Z,13.40
2023-04-13T10:52:39.826Z,13.30
2023-04-13T10:54:15.209Z,13.30
2023-04-13T10:55:47.971Z,13.30
2023-04-13T10:57:21.038Z,13.20
2023-04-13T10:58:54.071Z,13.20
2023-04-13T11:00:44.201Z,13.10
2023-04-13T11:02:20.569Z,13.20
2023-04-13T11:04:03.711Z,13.20
2023-04-13T11:05:38.332Z,13.20
2023-04-13T11:07:16.139Z,13.20
2023-04-13T11:08:48.871Z,13.10
2023-04-13T11:10:26.942Z,13.10
2023-04-13T11:11:59.613Z,13.10
2023-04-13T11:13:33.192Z,13.20
2023-04-13T11:15:06.923Z,13.30
2023-04-13T11:16:46.156Z,13.40
2023-04-13T11:18:26.216Z,13.40
2023-04-13T11:19:59.371Z,13.50
2023-04-13T11:21:35.129Z,13.50
2023-04-13T11:23:18.088Z,13.60
2023-04-13T11:24:51.903Z,13.50
2023-04-13T11:26:33.766Z,13.50
2023-04-13T11:28:08.827Z,13.40
2023-04-13T11:29:41.715Z,13.50
2023-04-13T11:31:14.567Z,13.60
2023-04-13T11:32:53.205Z,13.70
2023-04-13T11:34:28.798Z,13.60
2023-04-13T11:36:02.821Z,13.60
2023-04-13T11:37:39.789Z,13.60
2023-04-13T11:39:14.735Z,13.60
2023-04-13T11:40:47.883Z,13.70
2023-04-13T11:42:20.666Z,13.70
2023-04-13T11:43:54.575Z,13.80
2023-04-13T11:45:28.797Z,13.90
2023-04-13T11:47:03.271Z,14.00
2023-04-13T11:48:36.060Z,14.00
2023-04-13T11:50:09.434Z,14.10
2023-04-13T11:51:42.638Z,14.10
2023-04-13T11:53:16.675Z,14.20
2023-04-13T11:54:51.521Z,14.20
2023-04-13T11:56:25.744Z,14.30
2023-04-13T11:57:59.549Z,14.30
2023-04-13T11:59:32.283Z,14.30
2023-04-13T12:01:13.968Z,14.30
2023-04-13T12:03:01.351Z,14.30
2023-04-13T12:04:40.859Z,14.30
2023-04-13T12:06:16.528Z,14.20
2023-04-13T12:07:50.403Z,14.30
2023-04-13T12:09:37.006Z,14.30
2023-04-13T12:11:40.487Z,14.40
2023-04-13T12:15:10.581Z,14.50
2023-04-13T12:18:31.120Z,14.50
2023-04-13T12:20:16.693Z,14.60
2023-04-13T12:21:55.880Z,14.50
2023-04-13T12:23:29.058Z,14.50
2023-04-13T12:27:17.145Z,14.40
2023-04-13T12:28:35.257Z,14.40
2023-04-13T12:30:12.278Z,14.30
2023-04-13T12:31:45.471Z,14.30
2023-04-13T12:33:18.237Z,14.20
2023-04-13T12:34:50.925Z,14.20
2023-04-13T12:36:23.628Z,14.20
2023-04-13T12:37:56.679Z,14.10
2023-04-13T12:39:29.371Z,14.10
2023-04-13T12:41:03.390Z,14.00
2023-04-13T12:42:38.439Z,14.00
2023-04-13T12:44:11.345Z,14.10
2023-04-13T12:45:44.063Z,14.00
2023-04-13T12:47:16.830Z,14.00
2023-04-13T12:48:50.347Z,13.90
2023-04-13T12:50:23.242Z,13.90
2023-04-13T12:51:55.953Z,13.90
2023-04-13T12:53:28.698Z,13.90
2023-04-13T12:55:02.346Z,13.80
2023-04-13T12:56:35.092Z,13.90
2023-04-13T12:58:09.590Z,13.90
2023-04-13T12:59:42.358Z,13.90
2023-04-13T13:01:15.277Z,13.90
2023-04-13T13:02:52.134Z,13.90
2023-04-13T13:04:30.597Z,13.70
2023-04-13T13:06:04.721Z,13.70
2023-04-13T13:07:37.461Z,13.60
2023-04-13T13:09:10.330Z,13.50
2023-04-13T13:10:43.180Z,13.40
2023-04-13T13:12:16.072Z,13.30
2023-04-13T13:13:50.104Z,13.20
2023-04-13T13:15:22.848Z,12.90
2023-04-13T13:16:55.810Z,12.80
2023-04-13T13:18:38.968Z,12.70
2023-04-13T13:20:19.695Z,12.60
2023-04-13T13:21:52.397Z,12.60
2023-04-13T13:23:25.349Z,12.60
2023-04-13T13:24:58.040Z,12.50
2023-04-13T13:26:40.972Z,12.50
2023-04-13T13:28:23.491Z,12.50
2023-04-13T13:29:57.586Z,12.50
2023-04-13T13:31:30.342Z,12.60
2023-04-13T13:33:03.149Z,12.50
2023-04-13T13:34:35.933Z,12.50
2023-04-13T13:36:09.644Z,12.50
2023-04-13T13:37:42.364Z,12.50
2023-04-13T13:39:15.081Z,12.50
2023-04-13T13:40:47.996Z,12.50
2023-04-13T13:42:20.976Z,12.60
2023-04-13T13:43:53.687Z,12.50
2023-04-13T13:45:27.734Z,12.50
2023-04-13T13:47:01.142Z,12.50
2023-04-13T13:48:33.859Z,12.50
2023-04-13T13:50:07.934Z,12.50
2023-04-13T13:51:40.675Z,12.50
2023-04-13T13:53:13.407Z,12.50
2023-04-13T13:54:46.128Z,12.50
2023-04-13T13:56:19.152Z,12.50
2023-04-13T13:57:51.864Z,12.50
2023-04-13T13:59:24.630Z,12.50
2023-04-13T14:00:58.904Z,12.40
2023-04-13T14:02:31.891Z,12.40
2023-04-13T14:04:05.230Z,12.40
2023-04-13T14:05:38.171Z,12.40
2023-04-13T14:07:10.875Z,12.40
2023-04-13T14:08:43.666Z,12.40
2023-04-13T14:10:16.626Z,12.40
2023-04-13T14:11:50.537Z,12.40
2023-04-13T14:13:23.282Z,12.40
2023-04-13T14:14:56.028Z,12.30
2023-04-13T14:16:30.213Z,12.40
2023-04-13T14:18:10.764Z,12.40
2023-04-13T14:19:44.400Z,12.40
2023-04-13T14:21:21.265Z,12.30
2023-04-13T14:22:54.025Z,12.30
2023-04-13T14:24:27.121Z,12.30
2023-04-13T14:25:59.836Z,12.40
2023-04-13T14:27:32.622Z,12.40
2023-04-13T14:29:05.471Z,12.40
2023-04-13T14:30:38.395Z,12.40
2023-04-13T14:32:12.464Z,12.40
2023-04-13T14:33:45.408Z,12.40
2023-04-13T14:35:18.164Z,12.40
2023-04-13T14:36:53.699Z,12.40
2023-04-13T14:38:27.637Z,12.40
2023-04-13T14:40:00.319Z,12.40
2023-04-13T14:41:33.018Z,12.30
2023-04-13T14:43:05.746Z,12.30
2023-04-13T14:44:38.469Z,12.30
2023-04-13T14:46:11.242Z,12.30
2023-04-13T14:47:45.431Z,12.30
2023-04-13T14:49:19.124Z,12.10
2023-04-13T14:50:52.600Z,12.10
2023-04-13T14:52:25.337Z,12.10
2023-04-13T14:53:58.022Z,12.10
2023-04-13T14:55:31.702Z,12.10
2023-04-13T14:57:04.661Z,12.10
2023-04-13T14:58:37.480Z,12.10
2023-04-13T15:00:15.710Z,12.10
2023-04-13T15:01:48.932Z,12.10
2023-04-13T15:03:24.184Z,12.00
2023-04-13T15:04:58.374Z,12.00
2023-04-13T15:06:31.166Z,12.00
2023-04-13T15:08:04.892Z,11.90
2023-04-13T15:09:40.018Z,11.90
2023-04-13T15:11:12.901Z,11.90
2023-04-13T15:12:45.823Z,11.90
2023-04-13T15:14:18.736Z,12.00
2023-04-13T15:15:52.088Z,12.00
2023-04-13T15:17:26.293Z,11.90
2023-04-13T15:19:00.812Z,12.00
2023-04-13T15:20:33.951Z,11.90
2023-04-13T15:22:06.655Z,11.90
2023-04-13T15:23:39.359Z,11.80
2023-04-13T15:25:12.250Z,11.70
2023-04-13T15:26:44.946Z,11.60
2023-04-13T15:28:18.529Z,11.60
2023-04-13T15:29:59.759Z,11.60
2023-04-13T15:31:34.360Z,11.60
2023-04-13T15:33:07.193Z,11.60
2023-04-13T15:34:41.350Z,11.60
2023-04-13T15:36:15.881Z,11.50
2023-04-13T15:37:48.629Z,11.50
2023-04-13T15:39:21.396Z,11.50
2023-04-13T15:40:54.093Z,11.50
2023-04-13T15:42:27.196Z,11.50
2023-04-13T15:44:00.741Z,11.50
2023-04-13T15:45:33.785Z,11.60
2023-04-13T15:47:06.544Z,11.60
2023-04-13T15:48:39.312Z,11.60
2023-04-13T15:50:13.998Z,11.50
2023-04-13T15:51:46.771Z,11.50
2023-04-13T15:53:19.452Z,11.40
2023-04-13T15:54:51.200Z,11.40
2023-04-13T15:56:23.886Z,11.30
2023-04-13T15:57:57.143Z,11.30
2023-04-13T15:59:33.354Z,11.30
2023-04-13T16:01:08.340Z,11.30
2023-04-13T16:02:41.144Z,11.30
2023-04-13T16:04:14.421Z,11.40
2023-04-13T16:05:49.921Z,11.40
2023-04-13T16:07:22.634Z,11.50
2023-04-13T16:08:56.708Z,11.50
2023-04-13T16:10:29.567Z,11.50
2023-04-13T16:12:02.675Z,11.50
2023-04-13T16:13:48.946Z,11.40
2023-04-13T16:15:24.096Z,11.40
2023-04-13T16:16:59.724Z,11.40
2023-04-13T16:18:35.646Z,11.50
2023-04-13T16:20:17.767Z,11.50
2023-04-13T16:21:53.048Z,11.50
2023-04-13T16:23:25.942Z,11.50
2023-04-13T16:24:58.626Z,11.50
2023-04-13T16:26:31.396Z,11.60
2023-04-13T16:28:04.081Z,11.50
2023-04-13T16:29:36.791Z,11.50
2023-04-13T16:31:11.136Z,11.50
2023-04-13T16:32:44.423Z,11.50
2023-04-13T16:35:52.861Z,11.40
2023-04-13T16:37:26.936Z,11.30
2023-04-13T16:39:07.681Z,11.30
2023-04-13T16:40:40.558Z,11.30
2023-04-13T16:42:13.239Z,11.20
2023-04-13T16:43:46.433Z,11.20
2023-04-13T16:45:19.162Z,11.30
2023-04-13T16:46:51.914Z,11.30
2023-04-13T16:48:26.820Z,11.30
2023-04-13T16:49:59.701Z,11.30
2023-04-13T16:51:32.638Z,11.30
2023-04-13T16:53:06.648Z,11.30
2023-04-13T16:54:43.701Z,11.30
2023-04-13T16:56:17.191Z,11.20
2023-04-13T16:57:50.012Z,11.20
2023-04-13T16:59:22.719Z,11.20
2023-04-13T17:00:55.486Z,11.10
2023-04-13T17:02:31.563Z,11.10
2023-04-13T17:04:04.615Z,11.10
2023-04-13T17:05:37.735Z,11.00
2023-04-13T17:07:10.436Z,11.10
2023-04-13T17:08:44.450Z,11.10
2023-04-13T17:10:18.368Z,11.10
2023-04-13T17:11:51.090Z,11.10
2023-04-13T17:13:23.818Z,11.10
2023-04-13T17:14:58.251Z,11.00
2023-04-13T17:16:31.365Z,11.00
2023-04-13T17:18:04.297Z,11.00
2023-04-13T17:19:37.072Z,11.00
2023-04-13T17:21:09.785Z,11.00
2023-04-13T17:22:42.490Z,10.90
2023-04-13T17:24:16.521Z,10.80
2023-04-13T17:25:49.414Z,10.70
2023-04-13T17:27:22.159Z,10.70
2023-04-13T17:28:54.861Z,10.50
2023-04-13T17:30:27.972Z,10.40
2023-04-13T17:32:00.923Z,10.40
2023-04-13T17:33:34.251Z,10.30
2023-04-13T17:35:07.788Z,10.30
2023-04-13T17:36:40.552Z,10.30
2023-04-13T17:38:13.330Z,10.30
2023-04-13T17:39:47.687Z,10.20
2023-04-13T17:41:20.801Z,10.30
2023-04-13T17:42:53.478Z,10.20
2023-04-13T17:44:26.203Z,10.20
2023-04-13T17:45:58.956Z,10.10
2023-04-13T17:47:31.744Z,10.10
2023-04-13T17:49:04.540Z,10.00
2023-04-13T17:50:37.324Z,10.00
2023-04-13T17:52:10.043Z,10.10
2023-04-13T17:53:42.870Z,10.10
2023-04-13T17:55:18.132Z,10.10
2023-04-13T17:56:50.844Z,10.10
2023-04-13T17:58:23.532Z,10.00
2023-04-13T17:59:56.281Z,9.90
2023-04-13T18:01:28.979Z,9.90
2023-04-13T18:03:05.193Z,9.80
2023-04-13T18:04:38.467Z,9.80
2023-04-13T18:06:11.542Z,9.80
2023-04-13T18:07:44.363Z,9.80
2023-04-13T18:09:17.338Z,9.70
2023-04-13T18:10:51.493Z,9.70
2023-04-13T18:12:24.275Z,9.70
2023-04-13T18:13:57.108Z,9.60
2023-04-13T18:15:29.964Z,9.60
2023-04-13T18:17:02.745Z,9.60
2023-04-13T18:18:35.567Z,9.60
2023-04-13T18:20:09.306Z,9.60
2023-04-13T18:21:42.027Z,9.50
2023-04-13T18:23:14.785Z,9.50
2023-04-13T18:24:47.478Z,9.40
2023-04-13T18:26:21.673Z,9.40
2023-04-13T18:27:54.375Z,9.30
2023-04-13T18:29:27.053Z,9.30
2023-04-13T18:31:01.005Z,9.20
2023-04-13T18:32:33.773Z,9.20
2023-04-13T18:34:10.315Z,9.10
2023-04-13T18:35:43.629Z,9.10
2023-04-13T18:37:16.334Z,9.00
2023-04-13T18:38:49.132Z,9.00
2023-04-13T18:40:21.953Z,9.00
2023-04-13T18:41:55.982Z,9.00
2023-04-13T18:43:28.708Z,8.90
2023-04-13T18:45:01.435Z,8.90
2023-04-13T18:46:34.247Z,8.90
2023-04-13T18:48:09.369Z,8.80
2023-04-13T18:49:42.136Z,8.80
2023-04-13T18:51:14.837Z,8.80
2023-04-13T18:52:47.565Z,8.70
2023-04-13T18:54:20.376Z,8.70
2023-04-13T18:55:53.363Z,8.70
2023-04-13T18:57:27.565Z,8.70
2023-04-13T18:59:00.245Z,8.70
2023-04-13T19:00:33.050Z,8.70
2023-04-13T19:02:06.004Z,8.60
2023-04-13T19:03:38.920Z,8.50
2023-04-13T19:05:13.419Z,8.50
2023-04-13T19:06:46.296Z,8.40
2023-04-13T19:08:19.010Z,8.30
2023-04-13T19:09:51.675Z,8.30
2023-04-13T19:11:27.291Z,8.30
2023-04-13T19:13:01.458Z,8.20
2023-04-13T19:14:34.696Z,8.20
2023-04-13T19:16:07.721Z,8.20
2023-04-13T19:17:41.727Z,8.20
2023-04-13T19:19:15.610Z,8.20
2023-04-13T19:20:49.423Z,8.10
2023-04-13T19:22:22.199Z,8.10
2023-04-13T19:23:56.385Z,8.10
2023-04-13T19:25:29.138Z,8.10
2023-04-13T19:27:01.836Z,8.10
2023-04-13T19:28:35.955Z,8.00
2023-04-13T19:30:10.773Z,8.00
2023-04-13T19:31:45.837Z,8.00
2023-04-13T19:33:18.784Z,8.10
2023-04-13T19:34:51.574Z,8.10
2023-04-13T19:36:25.937Z,8.10
2023-04-13T19:37:58.715Z,8.10
2023-04-13T19:39:31.433Z,8.10
2023-04-13T19:41:04.143Z,8.00
2023-04-13T19:42:37.497Z,8.00
2023-04-13T19:44:13.889Z,8.00
2023-04-13T19:45:46.641Z,8.00
2023-04-13T19:47:19.376Z,8.00
2023-04-13T19:48:52.111Z,8.00
2023-04-13T19:50:24.805Z,8.00
2023-04-13T19:51:57.508Z,8.10
2023-04-13T19:53:30.224Z,8.00
2023-04-13T19:55:03.108Z,8.10
2023-04-13T19:56:36.458Z,8.10
2023-04-13T19:58:09.932Z,8.10
2023-04-13T19:59:44.263Z,8.10
2023-04-13T20:01:17.862Z,8.10
2023-04-13T20:02:52.302Z,8.10
2023-04-13T20:04:25.718Z,8.10
2023-04-13T20:05:59.207Z,8.10
2023-04-13T20:07:31.883Z,8.10
2023-04-13T20:09:11.988Z,8.10
2023-04-13T20:10:44.730Z,8.10
2023-04-13T20:12:17.560Z,8.00
2023-04-13T20:13:50.713Z,8.00
2023-04-13T20:15:24.735Z,7.90
2023-04-13T20:16:57.493Z,7.90
2023-04-13T20:18:30.271Z,7.90
2023-04-13T20:20:03.095Z,7.80
2023-04-13T20:21:36.036Z,7.80
2023-04-13T20:23:09.432Z,7.80
2023-04-13T20:24:42.110Z,7.80
2023-04-13T20:26:14.900Z,7.90
2023-04-13T20:27:47.701Z,7.80
2023-04-13T20:29:22.581Z,7.80
2023-04-13T20:30:56.630Z,7.80
2023-04-13T20:32:29.396Z,7.80
2023-04-13T20:34:03.104Z,7.80
2023-04-13T20:35:35.883Z,7.70
2023-04-13T20:37:10.113Z,7.70
2023-04-13T20:38:43.582Z,7.60
2023-04-13T20:40:17.702Z,7.60